sensor_id;sensor_type;location;lat;lon;timestamp;P1;durP1;ratioP1;P2;durP2;ratioP2
14603;SDS011;7388;51.078;13.740;2024-02-14T00:02:23;9.32;;;7.20;;
14603;SDS011;7388;51.078;13.740;2024-02-14T00:04:51;6.93;;;6.20;;
14603;SDS011;7388;51.078;13.740;2024-02-14T00:07:20;8.45;;;7.10;;
14603;SDS011;7388;51.078;13.740;2024-02-14T00:09:46;9.55;;;6.53;;
14603;SDS011;7388;51.078;13.740;2024-02-14T00:12:13;9.27;;;6.93;;
14603;SDS011;7388;51.078;13.740;2024-02-14T00:14:38;9.63;;;6.87;;
14603;SDS011;7388;51.078;13.740;2024-02-14T00:17:04;10.57;;;6.87;;
14603;SDS011;7388;51.078;13.740;2024-02-14T00:19:31;10.68;;;6.70;;
14603;SDS011;7388;51.078;13.740;2024-02-14T00:21:57;7.47;;;6.78;;
14603;SDS011;7388;51.078;13.740;2024-02-14T00:24:23;8.23;;;6.80;;
14603;SDS011;7388;51.078;13.740;2024-02-14T00:26:53;9.40;;;6.03;;
14603;SDS011;7388;51.078;13.740;2024-02-14T00:29:20;12.45;;;6.75;;
14603;SDS011;7388;51.078;13.740;2024-02-14T00:31:46;12.73;;;6.80;;
14603;SDS011;7388;51.078;13.740;2024-02-14T00:34:12;7.73;;;6.70;;
14603;SDS011;7388;51.078;13.740;2024-02-14T00:36:37;7.23;;;6.13;;
14603;SDS011;7388;51.078;13.740;2024-02-14T00:39:03;8.37;;;6.80;;
14603;SDS011;7388;51.078;13.740;2024-02-14T00:41:29;10.27;;;7.20;;
14603;SDS011;7388;51.078;13.740;2024-02-14T00:43:55;8.13;;;6.73;;
14603;SDS011;7388;51.078;13.740;2024-02-14T00:46:21;10.38;;;7.30;;
14603;SDS011;7388;51.078;13.740;2024-02-14T00:48:47;8.23;;;6.53;;
14603;SDS011;7388;51.078;13.740;2024-02-14T00:51:13;12.30;;;6.93;;
14603;SDS011;7388;51.078;13.740;2024-02-14T00:53:39;10.57;;;6.80;;
14603;SDS011;7388;51.078;13.740;2024-02-14T00:56:04;8.00;;;6.40;;
14603;SDS011;7388;51.078;13.740;2024-02-14T00:58:30;7.95;;;6.18;;
14603;SDS011;7388;51.078;13.740;2024-02-14T01:00:56;8.03;;;5.83;;
14603;SDS011;7388;51.078;13.740;2024-02-14T01:03:22;8.65;;;6.65;;
14603;SDS011;7388;51.078;13.740;2024-02-14T01:05:48;7.63;;;6.23;;
14603;SDS011;7388;51.078;13.740;2024-02-14T01:08:14;7.90;;;6.13;;
14603;SDS011;7388;51.078;13.740;2024-02-14T01:10:40;6.77;;;5.73;;
14603;SDS011;7388;51.078;13.740;2024-02-14T01:13:06;10.70;;;6.63;;
14603;SDS011;7388;51.078;13.740;2024-02-14T01:15:32;6.47;;;5.83;;
14603;SDS011;7388;51.078;13.740;2024-02-14T01:18:00;9.88;;;6.00;;
14603;SDS011;7388;51.078;13.740;2024-02-14T01:20:26;6.80;;;5.80;;
14603;SDS011;7388;51.078;13.740;2024-02-14T01:22:52;8.20;;;6.73;;
14603;SDS011;7388;51.078;13.740;2024-02-14T01:25:17;8.50;;;5.90;;
14603;SDS011;7388;51.078;13.740;2024-02-14T01:27:43;8.03;;;6.17;;
14603;SDS011;7388;51.078;13.740;2024-02-14T01:30:09;10.00;;;6.40;;
14603;SDS011;7388;51.078;13.740;2024-02-14T01:32:36;9.35;;;6.00;;
14603;SDS011;7388;51.078;13.740;2024-02-14T01:35:02;6.97;;;5.93;;
14603;SDS011;7388;51.078;13.740;2024-02-14T01:37:29;6.72;;;5.85;;
14603;SDS011;7388;51.078;13.740;2024-02-14T01:39:55;6.90;;;5.18;;
14603;SDS011;7388;51.078;13.740;2024-02-14T01:42:21;8.83;;;6.40;;
14603;SDS011;7388;51.078;13.740;2024-02-14T01:44:46;8.70;;;6.30;;
14603;SDS011;7388;51.078;13.740;2024-02-14T01:47:12;7.00;;;5.60;;
14603;SDS011;7388;51.078;13.740;2024-02-14T01:49:38;6.85;;;5.25;;
14603;SDS011;7388;51.078;13.740;2024-02-14T01:52:08;6.93;;;5.35;;
14603;SDS011;7388;51.078;13.740;2024-02-14T01:54:34;8.30;;;6.67;;
14603;SDS011;7388;51.078;13.740;2024-02-14T01:57:00;9.02;;;7.00;;
14603;SDS011;7388;51.078;13.740;2024-02-14T01:59:26;9.15;;;7.38;;
14603;SDS011;7388;51.078;13.740;2024-02-14T02:01:53;11.75;;;7.28;;
14603;SDS011;7388;51.078;13.740;2024-02-14T02:04:18;8.10;;;5.60;;
14603;SDS011;7388;51.078;13.740;2024-02-14T02:06:45;6.90;;;5.05;;
14603;SDS011;7388;51.078;13.740;2024-02-14T02:09:11;6.40;;;5.80;;
14603;SDS011;7388;51.078;13.740;2024-02-14T02:11:46;9.40;;;5.73;;
14603;SDS011;7388;51.078;13.740;2024-02-14T02:14:14;5.65;;;5.10;;
14603;SDS011;7388;51.078;13.740;2024-02-14T02:16:41;5.47;;;4.97;;
14603;SDS011;7388;51.078;13.740;2024-02-14T02:19:07;8.77;;;4.85;;
14603;SDS011;7388;51.078;13.740;2024-02-14T02:21:33;6.88;;;5.50;;
14603;SDS011;7388;51.078;13.740;2024-02-14T02:24:00;5.82;;;4.25;;
14603;SDS011;7388;51.078;13.740;2024-02-14T02:26:26;8.18;;;5.05;;
14603;SDS011;7388;51.078;13.740;2024-02-14T02:28:52;6.10;;;4.40;;
14603;SDS011;7388;51.078;13.740;2024-02-14T02:31:18;7.77;;;5.53;;
14603;SDS011;7388;51.078;13.740;2024-02-14T02:33:45;6.47;;;4.18;;
14603;SDS011;7388;51.078;13.740;2024-02-14T02:36:10;7.10;;;5.27;;
14603;SDS011;7388;51.078;13.740;2024-02-14T02:38:36;6.30;;;5.30;;
14603;SDS011;7388;51.078;13.740;2024-02-14T02:41:03;7.65;;;4.55;;
14603;SDS011;7388;51.078;13.740;2024-02-14T02:43:32;9.40;;;5.38;;
14603;SDS011;7388;51.078;13.740;2024-02-14T02:45:58;12.77;;;5.45;;
14603;SDS011;7388;51.078;13.740;2024-02-14T02:48:24;7.50;;;5.28;;
14603;SDS011;7388;51.078;13.740;2024-02-14T02:50:50;7.28;;;5.68;;
14603;SDS011;7388;51.078;13.740;2024-02-14T02:53:16;7.18;;;6.47;;
14603;SDS011;7388;51.078;13.740;2024-02-14T02:55:42;5.22;;;4.40;;
14603;SDS011;7388;51.078;13.740;2024-02-14T02:58:08;6.83;;;5.43;;
14603;SDS011;7388;51.078;13.740;2024-02-14T03:00:34;6.40;;;5.03;;
14603;SDS011;7388;51.078;13.740;2024-02-14T03:03:00;11.77;;;6.03;;
14603;SDS011;7388;51.078;13.740;2024-02-14T03:05:29;6.35;;;4.20;;
14603;SDS011;7388;51.078;13.740;2024-02-14T03:07:57;10.13;;;6.05;;
14603;SDS011;7388;51.078;13.740;2024-02-14T03:10:23;6.57;;;4.50;;
14603;SDS011;7388;51.078;13.740;2024-02-14T03:12:50;6.25;;;5.22;;
14603;SDS011;7388;51.078;13.740;2024-02-14T03:15:16;8.35;;;5.60;;
14603;SDS011;7388;51.078;13.740;2024-02-14T03:17:43;8.60;;;4.88;;
14603;SDS011;7388;51.078;13.740;2024-02-14T03:20:10;5.13;;;4.28;;
14603;SDS011;7388;51.078;13.740;2024-02-14T03:22:42;6.20;;;4.82;;
14603;SDS011;7388;51.078;13.740;2024-02-14T03:25:12;5.55;;;3.55;;
14603;SDS011;7388;51.078;13.740;2024-02-14T03:27:42;10.23;;;4.95;;
14603;SDS011;7388;51.078;13.740;2024-02-14T03:30:12;4.40;;;3.90;;
14603;SDS011;7388;51.078;13.740;2024-02-14T03:32:42;5.10;;;4.60;;
14603;SDS011;7388;51.078;13.740;2024-02-14T03:35:08;6.82;;;5.72;;
14603;SDS011;7388;51.078;13.740;2024-02-14T03:37:37;7.82;;;5.03;;
14603;SDS011;7388;51.078;13.740;2024-02-14T03:40:04;5.18;;;4.63;;
14603;SDS011;7388;51.078;13.740;2024-02-14T03:42:32;5.75;;;4.28;;
14603;SDS011;7388;51.078;13.740;2024-02-14T03:44:59;7.90;;;4.63;;
14603;SDS011;7388;51.078;13.740;2024-02-14T03:47:31;6.55;;;4.40;;
14603;SDS011;7388;51.078;13.740;2024-02-14T03:50:00;8.70;;;3.88;;
14603;SDS011;7388;51.078;13.740;2024-02-14T03:52:27;4.03;;;3.63;;
14603;SDS011;7388;51.078;13.740;2024-02-14T03:54:53;7.00;;;5.43;;
14603;SDS011;7388;51.078;13.740;2024-02-14T03:57:19;6.53;;;4.77;;
14603;SDS011;7388;51.078;13.740;2024-02-14T03:59:46;4.87;;;4.27;;
14603;SDS011;7388;51.078;13.740;2024-02-14T04:02:12;5.40;;;4.82;;
14603;SDS011;7388;51.078;13.740;2024-02-14T04:04:38;6.88;;;5.15;;
14603;SDS011;7388;51.078;13.740;2024-02-14T04:07:07;6.95;;;4.97;;
14603;SDS011;7388;51.078;13.740;2024-02-14T04:09:33;5.50;;;4.50;;
14603;SDS011;7388;51.078;13.740;2024-02-14T04:11:59;6.13;;;4.63;;
14603;SDS011;7388;51.078;13.740;2024-02-14T04:14:25;4.47;;;4.07;;
14603;SDS011;7388;51.078;13.740;2024-02-14T04:16:51;7.97;;;3.77;;
14603;SDS011;7388;51.078;13.740;2024-02-14T04:19:17;9.07;;;4.40;;
14603;SDS011;7388;51.078;13.740;2024-02-14T04:21:43;5.87;;;5.23;;
14603;SDS011;7388;51.078;13.740;2024-02-14T04:24:09;7.13;;;4.40;;
14603;SDS011;7388;51.078;13.740;2024-02-14T04:26:35;7.45;;;4.70;;
14603;SDS011;7388;51.078;13.740;2024-02-14T04:29:01;4.70;;;4.17;;
14603;SDS011;7388;51.078;13.740;2024-02-14T04:31:27;5.60;;;4.78;;
14603;SDS011;7388;51.078;13.740;2024-02-14T04:33:55;9.80;;;5.03;;
14603;SDS011;7388;51.078;13.740;2024-02-14T04:36:21;6.07;;;4.70;;
14603;SDS011;7388;51.078;13.740;2024-02-14T04:38:49;5.47;;;4.90;;
14603;SDS011;7388;51.078;13.740;2024-02-14T04:41:15;5.88;;;4.45;;
14603;SDS011;7388;51.078;13.740;2024-02-14T04:43:41;6.05;;;5.20;;
14603;SDS011;7388;51.078;13.740;2024-02-14T04:46:07;9.68;;;4.57;;
14603;SDS011;7388;51.078;13.740;2024-02-14T04:48:36;5.35;;;4.03;;
14603;SDS011;7388;51.078;13.740;2024-02-14T04:51:03;5.32;;;4.72;;
14603;SDS011;7388;51.078;13.740;2024-02-14T04:53:32;6.75;;;5.65;;
14603;SDS011;7388;51.078;13.740;2024-02-14T04:55:58;6.57;;;5.90;;
14603;SDS011;7388;51.078;13.740;2024-02-14T04:58:24;6.20;;;4.55;;
14603;SDS011;7388;51.078;13.740;2024-02-14T05:00:52;6.60;;;5.00;;
14603;SDS011;7388;51.078;13.740;2024-02-14T05:03:18;4.47;;;3.90;;
14603;SDS011;7388;51.078;13.740;2024-02-14T05:05:43;7.77;;;4.73;;
14603;SDS011;7388;51.078;13.740;2024-02-14T05:08:09;7.73;;;4.87;;
14603;SDS011;7388;51.078;13.740;2024-02-14T05:10:35;7.27;;;5.30;;
14603;SDS011;7388;51.078;13.740;2024-02-14T05:13:01;8.13;;;5.47;;
14603;SDS011;7388;51.078;13.740;2024-02-14T05:15:27;6.60;;;4.37;;
14603;SDS011;7388;51.078;13.740;2024-02-14T05:17:53;5.78;;;3.95;;
14603;SDS011;7388;51.078;13.740;2024-02-14T05:20:19;7.90;;;4.77;;
14603;SDS011;7388;51.078;13.740;2024-02-14T05:22:44;4.97;;;4.47;;
14603;SDS011;7388;51.078;13.740;2024-02-14T05:25:10;8.30;;;6.50;;
14603;SDS011;7388;51.078;13.740;2024-02-14T05:27:36;7.67;;;6.93;;
14603;SDS011;7388;51.078;13.740;2024-02-14T05:30:02;7.90;;;6.30;;
14603;SDS011;7388;51.078;13.740;2024-02-14T05:32:31;9.15;;;6.03;;
14603;SDS011;7388;51.078;13.740;2024-02-14T05:34:58;9.60;;;5.13;;
14603;SDS011;7388;51.078;13.740;2024-02-14T05:37:24;9.45;;;5.40;;
14603;SDS011;7388;51.078;13.740;2024-02-14T05:39:52;6.72;;;5.63;;
14603;SDS011;7388;51.078;13.740;2024-02-14T05:42:19;9.70;;;6.63;;
14603;SDS011;7388;51.078;13.740;2024-02-14T05:44:45;6.40;;;4.88;;
14603;SDS011;7388;51.078;13.740;2024-02-14T05:47:11;6.10;;;4.80;;
14603;SDS011;7388;51.078;13.740;2024-02-14T05:49:40;9.60;;;5.03;;
14603;SDS011;7388;51.078;13.740;2024-02-14T05:52:08;9.45;;;6.13;;
14603;SDS011;7388;51.078;13.740;2024-02-14T05:54:34;8.85;;;5.20;;
14603;SDS011;7388;51.078;13.740;2024-02-14T05:57:00;8.13;;;5.57;;
14603;SDS011;7388;51.078;13.740;2024-02-14T05:59:27;7.45;;;5.65;;
14603;SDS011;7388;51.078;13.740;2024-02-14T06:01:53;10.15;;;6.53;;
14603;SDS011;7388;51.078;13.740;2024-02-14T06:04:19;7.23;;;5.60;;
14603;SDS011;7388;51.078;13.740;2024-02-14T06:06:44;9.53;;;5.10;;
14603;SDS011;7388;51.078;13.740;2024-02-14T06:09:10;9.50;;;5.43;;
14603;SDS011;7388;51.078;13.740;2024-02-14T06:11:36;7.45;;;5.45;;
14603;SDS011;7388;51.078;13.740;2024-02-14T06:14:07;7.82;;;5.68;;
14603;SDS011;7388;51.078;13.740;2024-02-14T06:16:34;7.15;;;5.70;;
14603;SDS011;7388;51.078;13.740;2024-02-14T06:19:00;9.18;;;6.20;;
14603;SDS011;7388;51.078;13.740;2024-02-14T06:21:26;10.70;;;6.32;;
14603;SDS011;7388;51.078;13.740;2024-02-14T06:23:52;9.07;;;6.88;;
14603;SDS011;7388;51.078;13.740;2024-02-14T06:26:18;9.05;;;6.38;;
14603;SDS011;7388;51.078;13.740;2024-02-14T06:28:44;9.03;;;5.73;;
14603;SDS011;7388;51.078;13.740;2024-02-14T06:31:10;19.42;;;6.65;;
14603;SDS011;7388;51.078;13.740;2024-02-14T06:33:36;6.70;;;5.77;;
14603;SDS011;7388;51.078;13.740;2024-02-14T06:36:02;6.73;;;5.80;;
14603;SDS011;7388;51.078;13.740;2024-02-14T06:38:28;6.90;;;5.43;;
14603;SDS011;7388;51.078;13.740;2024-02-14T06:40:55;7.20;;;5.60;;
14603;SDS011;7388;51.078;13.740;2024-02-14T06:43:21;10.20;;;6.47;;
14603;SDS011;7388;51.078;13.740;2024-02-14T06:45:47;8.00;;;5.87;;
14603;SDS011;7388;51.078;13.740;2024-02-14T06:48:13;7.60;;;6.10;;
14603;SDS011;7388;51.078;13.740;2024-02-14T06:50:39;10.63;;;6.47;;
14603;SDS011;7388;51.078;13.740;2024-02-14T06:53:06;12.23;;;6.23;;
14603;SDS011;7388;51.078;13.740;2024-02-14T06:55:32;7.13;;;5.90;;
14603;SDS011;7388;51.078;13.740;2024-02-14T06:57:58;7.60;;;5.80;;
14603;SDS011;7388;51.078;13.740;2024-02-14T07:00:27;7.53;;;5.72;;
14603;SDS011;7388;51.078;13.740;2024-02-14T07:02:55;8.43;;;5.90;;
14603;SDS011;7388;51.078;13.740;2024-02-14T07:05:21;15.17;;;7.10;;
14603;SDS011;7388;51.078;13.740;2024-02-14T07:07:47;8.13;;;6.30;;
14603;SDS011;7388;51.078;13.740;2024-02-14T07:10:12;9.50;;;7.07;;
14603;SDS011;7388;51.078;13.740;2024-02-14T07:12:38;11.30;;;7.03;;
14603;SDS011;7388;51.078;13.740;2024-02-14T07:15:04;7.23;;;5.80;;
14603;SDS011;7388;51.078;13.740;2024-02-14T07:17:31;8.80;;;6.63;;
14603;SDS011;7388;51.078;13.740;2024-02-14T07:19:57;8.10;;;5.90;;
14603;SDS011;7388;51.078;13.740;2024-02-14T07:22:22;7.60;;;5.60;;
14603;SDS011;7388;51.078;13.740;2024-02-14T07:24:48;9.57;;;6.33;;
14603;SDS011;7388;51.078;13.740;2024-02-14T07:27:14;8.97;;;5.87;;
14603;SDS011;7388;51.078;13.740;2024-02-14T07:29:41;8.25;;;6.28;;
14603;SDS011;7388;51.078;13.740;2024-02-14T07:32:07;9.13;;;6.43;;
14603;SDS011;7388;51.078;13.740;2024-02-14T07:34:33;8.50;;;5.77;;
14603;SDS011;7388;51.078;13.740;2024-02-14T07:36:59;10.37;;;6.33;;
14603;SDS011;7388;51.078;13.740;2024-02-14T07:39:24;7.33;;;6.30;;
14603;SDS011;7388;51.078;13.740;2024-02-14T07:41:50;9.23;;;6.63;;
14603;SDS011;7388;51.078;13.740;2024-02-14T07:44:16;8.50;;;6.60;;
14603;SDS011;7388;51.078;13.740;2024-02-14T07:46:42;18.08;;;7.22;;
14603;SDS011;7388;51.078;13.740;2024-02-14T07:49:08;8.10;;;5.50;;
14603;SDS011;7388;51.078;13.740;2024-02-14T07:51:35;7.70;;;5.60;;
14603;SDS011;7388;51.078;13.740;2024-02-14T07:54:03;10.70;;;7.00;;
14603;SDS011;7388;51.078;13.740;2024-02-14T07:56:29;15.13;;;6.70;;
14603;SDS011;7388;51.078;13.740;2024-02-14T07:58:56;9.00;;;6.13;;
14603;SDS011;7388;51.078;13.740;2024-02-14T08:01:22;6.57;;;5.00;;
14603;SDS011;7388;51.078;13.740;2024-02-14T08:03:47;8.63;;;5.77;;
14603;SDS011;7388;51.078;13.740;2024-02-14T08:06:13;5.50;;;5.00;;
14603;SDS011;7388;51.078;13.740;2024-02-14T08:08:39;8.85;;;5.43;;
14603;SDS011;7388;51.078;13.740;2024-02-14T08:11:05;8.43;;;5.30;;
14603;SDS011;7388;51.078;13.740;2024-02-14T08:13:31;6.97;;;5.00;;
14603;SDS011;7388;51.078;13.740;2024-02-14T08:15:57;8.25;;;5.97;;
14603;SDS011;7388;51.078;13.740;2024-02-14T08:18:26;8.90;;;6.78;;
14603;SDS011;7388;51.078;13.740;2024-02-14T08:20:54;10.60;;;5.82;;
14603;SDS011;7388;51.078;13.740;2024-02-14T08:23:20;8.33;;;5.40;;
14603;SDS011;7388;51.078;13.740;2024-02-14T08:25:46;7.90;;;4.83;;
14603;SDS011;7388;51.078;13.740;2024-02-14T08:28:12;8.27;;;5.35;;
14603;SDS011;7388;51.078;13.740;2024-02-14T08:30:38;8.50;;;4.77;;
14603;SDS011;7388;51.078;13.740;2024-02-14T08:33:03;9.60;;;5.18;;
14603;SDS011;7388;51.078;13.740;2024-02-14T08:35:29;8.43;;;5.30;;
14603;SDS011;7388;51.078;13.740;2024-02-14T08:37:55;6.40;;;4.00;;
14603;SDS011;7388;51.078;13.740;2024-02-14T08:40:21;7.67;;;5.37;;
14603;SDS011;7388;51.078;13.740;2024-02-14T08:42:46;5.90;;;4.50;;
14603;SDS011;7388;51.078;13.740;2024-02-14T08:45:12;10.20;;;5.30;;
14603;SDS011;7388;51.078;13.740;2024-02-14T08:47:38;6.17;;;4.93;;
14603;SDS011;7388;51.078;13.740;2024-02-14T08:50:04;7.35;;;5.43;;
14603;SDS011;7388;51.078;13.740;2024-02-14T08:52:30;10.35;;;6.13;;
14603;SDS011;7388;51.078;13.740;2024-02-14T08:54:57;6.22;;;4.90;;
14603;SDS011;7388;51.078;13.740;2024-02-14T08:57:23;7.90;;;4.50;;
14603;SDS011;7388;51.078;13.740;2024-02-14T08:59:48;5.83;;;5.00;;
14603;SDS011;7388;51.078;13.740;2024-02-14T09:02:14;6.60;;;5.33;;
14603;SDS011;7388;51.078;13.740;2024-02-14T09:04:41;7.35;;;4.93;;
14603;SDS011;7388;51.078;13.740;2024-02-14T09:07:07;5.60;;;4.87;;
14603;SDS011;7388;51.078;13.740;2024-02-14T09:09:33;7.53;;;4.47;;
14603;SDS011;7388;51.078;13.740;2024-02-14T09:11:59;5.27;;;4.73;;
14603;SDS011;7388;51.078;13.740;2024-02-14T09:14:28;6.70;;;4.75;;
14603;SDS011;7388;51.078;13.740;2024-02-14T09:16:54;6.03;;;4.25;;
14603;SDS011;7388;51.078;13.740;2024-02-14T09:19:19;6.70;;;4.67;;
14603;SDS011;7388;51.078;13.740;2024-02-14T09:21:46;7.40;;;5.95;;
14603;SDS011;7388;51.078;13.740;2024-02-14T09:24:12;6.60;;;4.80;;
14603;SDS011;7388;51.078;13.740;2024-02-14T09:26:38;7.97;;;4.80;;
14603;SDS011;7388;51.078;13.740;2024-02-14T09:29:04;6.57;;;3.77;;
14603;SDS011;7388;51.078;13.740;2024-02-14T09:31:30;7.00;;;4.40;;
14603;SDS011;7388;51.078;13.740;2024-02-14T09:33:56;6.43;;;5.10;;
14603;SDS011;7388;51.078;13.740;2024-02-14T09:36:23;6.95;;;5.00;;
14603;SDS011;7388;51.078;13.740;2024-02-14T09:38:49;10.50;;;5.80;;
14603;SDS011;7388;51.078;13.740;2024-02-14T09:43:58;6.38;;;4.63;;
14603;SDS011;7388;51.078;13.740;2024-02-14T09:46:24;8.40;;;4.40;;
14603;SDS011;7388;51.078;13.740;2024-02-14T09:48:55;6.47;;;4.35;;
14603;SDS011;7388;51.078;13.740;2024-02-14T09:51:24;7.15;;;5.57;;
14603;SDS011;7388;51.078;13.740;2024-02-14T09:53:50;7.70;;;4.80;;
14603;SDS011;7388;51.078;13.740;2024-02-14T09:56:19;8.48;;;5.50;;
14603;SDS011;7388;51.078;13.740;2024-02-14T09:58:47;7.40;;;5.45;;
14603;SDS011;7388;51.078;13.740;2024-02-14T10:01:24;7.60;;;5.25;;
14603;SDS011;7388;51.078;13.740;2024-02-14T10:03:51;5.15;;;4.65;;
14603;SDS011;7388;51.078;13.740;2024-02-14T10:06:18;8.25;;;5.05;;
14603;SDS011;7388;51.078;13.740;2024-02-14T10:08:48;8.18;;;6.00;;
14603;SDS011;7388;51.078;13.740;2024-02-14T10:11:14;9.70;;;5.90;;
14603;SDS011;7388;51.078;13.740;2024-02-14T10:13:41;8.48;;;5.43;;
14603;SDS011;7388;51.078;13.740;2024-02-14T10:16:10;7.20;;;6.40;;
14603;SDS011;7388;51.078;13.740;2024-02-14T10:18:37;9.50;;;5.03;;
14603;SDS011;7388;51.078;13.740;2024-02-14T10:21:04;7.25;;;5.82;;
14603;SDS011;7388;51.078;13.740;2024-02-14T10:23:30;7.07;;;4.43;;
14603;SDS011;7388;51.078;13.740;2024-02-14T10:25:57;8.35;;;4.60;;
14603;SDS011;7388;51.078;13.740;2024-02-14T10:28:23;7.97;;;4.63;;
14603;SDS011;7388;51.078;13.740;2024-02-14T10:30:49;6.93;;;4.97;;
14603;SDS011;7388;51.078;13.740;2024-02-14T10:33:15;12.43;;;4.90;;
14603;SDS011;7388;51.078;13.740;2024-02-14T10:35:42;9.60;;;6.63;;
14603;SDS011;7388;51.078;13.740;2024-02-14T10:38:08;7.25;;;5.40;;
14603;SDS011;7388;51.078;13.740;2024-02-14T10:40:37;10.45;;;5.80;;
14603;SDS011;7388;51.078;13.740;2024-02-14T10:43:07;8.30;;;5.70;;
14603;SDS011;7388;51.078;13.740;2024-02-14T10:45:34;10.80;;;5.10;;
14603;SDS011;7388;51.078;13.740;2024-02-14T10:48:01;8.32;;;4.50;;
14603;SDS011;7388;51.078;13.740;2024-02-14T10:50:33;11.95;;;5.78;;
14603;SDS011;7388;51.078;13.740;2024-02-14T10:53:03;6.70;;;5.50;;
14603;SDS011;7388;51.078;13.740;2024-02-14T10:55:31;10.13;;;5.78;;
14603;SDS011;7388;51.078;13.740;2024-02-14T10:57:58;8.23;;;4.60;;
14603;SDS011;7388;51.078;13.740;2024-02-14T11:00:25;5.70;;;4.82;;
14603;SDS011;7388;51.078;13.740;2024-02-14T11:02:52;6.43;;;5.32;;
14603;SDS011;7388;51.078;13.740;2024-02-14T11:05:19;10.02;;;5.03;;
14603;SDS011;7388;51.078;13.740;2024-02-14T11:07:48;5.80;;;4.32;;
14603;SDS011;7388;51.078;13.740;2024-02-14T11:10:17;7.15;;;5.95;;
14603;SDS011;7388;51.078;13.740;2024-02-14T11:12:46;9.73;;;3.90;;
14603;SDS011;7388;51.078;13.740;2024-02-14T11:17:43;4.88;;;2.55;;
14603;SDS011;7388;51.078;13.740;2024-02-14T11:20:13;4.38;;;2.63;;
14603;SDS011;7388;51.078;13.740;2024-02-14T11:22:49;3.67;;;2.22;;
14603;SDS011;7388;51.078;13.740;2024-02-14T11:25:17;4.93;;;2.17;;
14603;SDS011;7388;51.078;13.740;2024-02-14T11:27:46;2.20;;;1.88;;
14603;SDS011;7388;51.078;13.740;2024-02-14T11:30:12;3.90;;;3.00;;
14603;SDS011;7388;51.078;13.740;2024-02-14T11:32:40;4.60;;;2.13;;
14603;SDS011;7388;51.078;13.740;2024-02-14T11:35:07;6.65;;;2.72;;
14603;SDS011;7388;51.078;13.740;2024-02-14T11:37:36;2.92;;;2.45;;
14603;SDS011;7388;51.078;13.740;2024-02-14T11:40:02;4.20;;;2.80;;
14603;SDS011;7388;51.078;13.740;2024-02-14T11:42:28;4.90;;;2.43;;
14603;SDS011;7388;51.078;13.740;2024-02-14T11:44:53;2.80;;;2.20;;
14603;SDS011;7388;51.078;13.740;2024-02-14T11:47:22;4.07;;;2.17;;
14603;SDS011;7388;51.078;13.740;2024-02-14T11:49:48;3.72;;;2.42;;
14603;SDS011;7388;51.078;13.740;2024-02-14T11:52:14;4.10;;;1.43;;
14603;SDS011;7388;51.078;13.740;2024-02-14T11:54:40;2.40;;;2.10;;
14603;SDS011;7388;51.078;13.740;2024-02-14T11:57:16;7.78;;;2.47;;
14603;SDS011;7388;51.078;13.740;2024-02-14T11:59:43;3.20;;;2.40;;
14603;SDS011;7388;51.078;13.740;2024-02-14T12:02:11;3.58;;;2.10;;
14603;SDS011;7388;51.078;13.740;2024-02-14T12:04:38;3.08;;;2.30;;
14603;SDS011;7388;51.078;13.740;2024-02-14T12:07:03;2.43;;;1.80;;
14603;SDS011;7388;51.078;13.740;2024-02-14T12:09:29;3.43;;;2.17;;
14603;SDS011;7388;51.078;13.740;2024-02-14T12:11:56;2.67;;;2.00;;
14603;SDS011;7388;51.078;13.740;2024-02-14T12:14:22;5.30;;;1.80;;
14603;SDS011;7388;51.078;13.740;2024-02-14T12:16:50;2.03;;;1.35;;
14603;SDS011;7388;51.078;13.740;2024-02-14T12:19:16;2.47;;;1.73;;
14603;SDS011;7388;51.078;13.740;2024-02-14T12:21:42;4.07;;;2.37;;
14603;SDS011;7388;51.078;13.740;2024-02-14T12:24:13;5.85;;;2.20;;
14603;SDS011;7388;51.078;13.740;2024-02-14T12:26:39;2.45;;;1.73;;
14603;SDS011;7388;51.078;13.740;2024-02-14T12:29:06;6.63;;;2.40;;
14603;SDS011;7388;51.078;13.740;2024-02-14T12:31:34;5.15;;;1.65;;
14603;SDS011;7388;51.078;13.740;2024-02-14T12:34:01;2.05;;;1.73;;
14603;SDS011;7388;51.078;13.740;2024-02-14T12:36:29;3.70;;;2.38;;
14603;SDS011;7388;51.078;13.740;2024-02-14T12:38:59;3.05;;;2.30;;
14603;SDS011;7388;51.078;13.740;2024-02-14T12:41:27;6.47;;;2.83;;
14603;SDS011;7388;51.078;13.740;2024-02-14T12:44:00;4.55;;;2.72;;
14603;SDS011;7388;51.078;13.740;2024-02-14T12:46:25;2.73;;;2.20;;
14603;SDS011;7388;51.078;13.740;2024-02-14T12:48:52;2.20;;;1.63;;
14603;SDS011;7388;51.078;13.740;2024-02-14T12:51:17;7.50;;;2.27;;
14603;SDS011;7388;51.078;13.740;2024-02-14T12:53:43;2.13;;;1.73;;
14603;SDS011;7388;51.078;13.740;2024-02-14T12:56:09;2.20;;;1.83;;
14603;SDS011;7388;51.078;13.740;2024-02-14T12:58:35;3.10;;;2.13;;
14603;SDS011;7388;51.078;13.740;2024-02-14T13:01:02;4.32;;;2.00;;
14603;SDS011;7388;51.078;13.740;2024-02-14T13:03:31;5.22;;;1.83;;
14603;SDS011;7388;51.078;13.740;2024-02-14T13:05:58;3.58;;;1.73;;
14603;SDS011;7388;51.078;13.740;2024-02-14T13:08:24;9.40;;;2.95;;
14603;SDS011;7388;51.078;13.740;2024-02-14T13:10:50;4.10;;;1.90;;
14603;SDS011;7388;51.078;13.740;2024-02-14T13:13:16;2.83;;;2.27;;
14603;SDS011;7388;51.078;13.740;2024-02-14T13:15:41;3.60;;;1.97;;
14603;SDS011;7388;51.078;13.740;2024-02-14T13:18:09;10.02;;;2.08;;
14603;SDS011;7388;51.078;13.740;2024-02-14T13:20:35;4.80;;;1.67;;
14603;SDS011;7388;51.078;13.740;2024-02-14T13:23:00;2.40;;;1.83;;
14603;SDS011;7388;51.078;13.740;2024-02-14T13:25:27;3.13;;;1.70;;
14603;SDS011;7388;51.078;13.740;2024-02-14T13:27:53;3.60;;;2.13;;
14603;SDS011;7388;51.078;13.740;2024-02-14T13:30:20;3.55;;;2.13;;
14603;SDS011;7388;51.078;13.740;2024-02-14T13:32:46;2.25;;;1.50;;
14603;SDS011;7388;51.078;13.740;2024-02-14T13:35:12;4.20;;;2.00;;
14603;SDS011;7388;51.078;13.740;2024-02-14T13:37:38;3.00;;;1.83;;
14603;SDS011;7388;51.078;13.740;2024-02-14T13:40:05;2.40;;;1.70;;
14603;SDS011;7388;51.078;13.740;2024-02-14T13:42:35;7.88;;;2.10;;
14603;SDS011;7388;51.078;13.740;2024-02-14T13:45:03;2.83;;;2.35;;
14603;SDS011;7388;51.078;13.740;2024-02-14T13:47:30;3.20;;;2.70;;
14603;SDS011;7388;51.078;13.740;2024-02-14T13:49:56;3.60;;;2.20;;
14603;SDS011;7388;51.078;13.740;2024-02-14T13:52:22;3.87;;;2.30;;
14603;SDS011;7388;51.078;13.740;2024-02-14T13:54:48;2.80;;;2.50;;
14603;SDS011;7388;51.078;13.740;2024-02-14T13:57:13;3.20;;;2.40;;
14603;SDS011;7388;51.078;13.740;2024-02-14T13:59:39;3.07;;;2.00;;
14603;SDS011;7388;51.078;13.740;2024-02-14T14:02:05;4.40;;;3.00;;
14603;SDS011;7388;51.078;13.740;2024-02-14T14:04:30;2.40;;;1.60;;
14603;SDS011;7388;51.078;13.740;2024-02-14T14:06:56;3.60;;;2.43;;
14603;SDS011;7388;51.078;13.740;2024-02-14T14:09:23;3.25;;;2.30;;
14603;SDS011;7388;51.078;13.740;2024-02-14T14:11:49;2.83;;;2.42;;
14603;SDS011;7388;51.078;13.740;2024-02-14T14:14:16;4.70;;;2.28;;
14603;SDS011;7388;51.078;13.740;2024-02-14T14:16:44;2.95;;;1.90;;
14603;SDS011;7388;51.078;13.740;2024-02-14T14:19:09;2.60;;;2.27;;
14603;SDS011;7388;51.078;13.740;2024-02-14T14:21:36;6.97;;;3.35;;
14603;SDS011;7388;51.078;13.740;2024-02-14T14:24:03;6.78;;;3.40;;
14603;SDS011;7388;51.078;13.740;2024-02-14T14:26:29;3.28;;;2.75;;
14603;SDS011;7388;51.078;13.740;2024-02-14T14:28:55;5.33;;;2.73;;
14603;SDS011;7388;51.078;13.740;2024-02-14T14:31:20;2.30;;;2.10;;
14603;SDS011;7388;51.078;13.740;2024-02-14T14:33:46;2.70;;;2.42;;
14603;SDS011;7388;51.078;13.740;2024-02-14T14:36:13;3.58;;;2.60;;
14603;SDS011;7388;51.078;13.740;2024-02-14T14:38:40;3.05;;;2.30;;
14603;SDS011;7388;51.078;13.740;2024-02-14T14:41:05;5.43;;;2.87;;
14603;SDS011;7388;51.078;13.740;2024-02-14T14:43:31;3.40;;;2.10;;
14603;SDS011;7388;51.078;13.740;2024-02-14T14:45:57;3.03;;;2.20;;
14603;SDS011;7388;51.078;13.740;2024-02-14T14:48:23;3.90;;;2.50;;